sensor_id;sensor_type;location;lat;lon;timestamp;P1;durP1;ratioP1;P2;durP2;ratioP2
30068;SDS011;16894;49.456;10.644;2022-10-31T00:00:50;20.63;;;13.02;;
30068;SDS011;16894;49.456;10.644;2022-10-31T00:03:16;26.15;;;14.98;;
30068;SDS011;16894;49.456;10.644;2022-10-31T00:05:46;19.88;;;12.68;;
30068;SDS011;16894;49.456;10.644;2022-10-31T00:08:13;20.70;;;12.13;;
30068;SDS011;16894;49.456;10.644;2022-10-31T00:10:39;23.65;;;13.45;;
30068;SDS011;16894;49.456;10.644;2022-10-31T00:13:06;17.92;;;11.93;;
30068;SDS011;16894;49.456;10.644;2022-10-31T00:15:33;21.35;;;11.95;;
30068;SDS011;16894;49.456;10.644;2022-10-31T00:17:59;23.00;;;12.93;;
30068;SDS011;16894;49.456;10.644;2022-10-31T00:20:25;23.43;;;10.83;;
30068;SDS011;16894;49.456;10.644;2022-10-31T00:22:50;25.80;;;11.77;;
30068;SDS011;16894;49.456;10.644;2022-10-31T00:25:16;27.13;;;12.77;;
30068;SDS011;16894;49.456;10.644;2022-10-31T00:27:41;17.43;;;11.03;;
30068;SDS011;16894;49.456;10.644;2022-10-31T00:30:07;15.73;;;11.17;;
30068;SDS011;16894;49.456;10.644;2022-10-31T00:32:33;21.90;;;11.07;;
30068;SDS011;16894;49.456;10.644;2022-10-31T00:34:59;30.13;;;11.30;;
30068;SDS011;16894;49.456;10.644;2022-10-31T00:37:24;17.70;;;12.00;;
30068;SDS011;16894;49.456;10.644;2022-10-31T00:39:50;30.60;;;11.60;;
30068;SDS011;16894;49.456;10.644;2022-10-31T00:42:16;33.93;;;11.27;;
30068;SDS011;16894;49.456;10.644;2022-10-31T00:44:41;35.90;;;12.70;;
30068;SDS011;16894;49.456;10.644;2022-10-31T00:47:07;24.23;;;10.80;;
30068;SDS011;16894;49.456;10.644;2022-10-31T00:49:32;45.43;;;12.13;;
30068;SDS011;16894;49.456;10.644;2022-10-31T00:51:58;29.30;;;13.33;;
30068;SDS011;16894;49.456;10.644;2022-10-31T00:54:23;45.20;;;15.90;;
30068;SDS011;16894;49.456;10.644;2022-10-31T00:56:49;44.60;;;14.87;;
30068;SDS011;16894;49.456;10.644;2022-10-31T00:59:15;29.67;;;14.57;;
30068;SDS011;16894;49.456;10.644;2022-10-31T01:01:40;23.97;;;12.60;;
30068;SDS011;16894;49.456;10.644;2022-10-31T01:04:06;36.97;;;12.67;;
30068;SDS011;16894;49.456;10.644;2022-10-31T01:06:32;21.77;;;10.83;;
30068;SDS011;16894;49.456;10.644;2022-10-31T01:08:57;55.03;;;11.70;;
30068;SDS011;16894;49.456;10.644;2022-10-31T01:11:23;26.37;;;11.57;;
30068;SDS011;16894;49.456;10.644;2022-10-31T01:13:49;30.35;;;11.50;;
30068;SDS011;16894;49.456;10.644;2022-10-31T01:16:18;22.10;;;11.85;;
30068;SDS011;16894;49.456;10.644;2022-10-31T01:18:45;20.17;;;11.95;;
30068;SDS011;16894;49.456;10.644;2022-10-31T01:21:12;30.83;;;14.32;;
30068;SDS011;16894;49.456;10.644;2022-10-31T01:23:40;21.38;;;11.98;;
30068;SDS011;16894;49.456;10.644;2022-10-31T01:26:10;38.10;;;13.15;;
30068;SDS011;16894;49.456;10.644;2022-10-31T01:28:38;17.83;;;11.35;;
30068;SDS011;16894;49.456;10.644;2022-10-31T01:31:08;53.13;;;15.05;;
30068;SDS011;16894;49.456;10.644;2022-10-31T01:33:34;42.80;;;14.23;;
30068;SDS011;16894;49.456;10.644;2022-10-31T01:36:01;28.75;;;12.15;;
30068;SDS011;16894;49.456;10.644;2022-10-31T01:38:35;27.75;;;12.85;;
30068;SDS011;16894;49.456;10.644;2022-10-31T01:41:01;27.37;;;13.90;;
30068;SDS011;16894;49.456;10.644;2022-10-31T01:46:31;39.25;;;12.77;;
30068;SDS011;16894;49.456;10.644;2022-10-31T01:49:02;89.82;;;15.30;;
30068;SDS011;16894;49.456;10.644;2022-10-31T01:51:35;58.85;;;14.52;;
30068;SDS011;16894;49.456;10.644;2022-10-31T01:54:07;52.35;;;13.70;;
30068;SDS011;16894;49.456;10.644;2022-10-31T01:56:36;34.78;;;12.13;;
30068;SDS011;16894;49.456;10.644;2022-10-31T01:59:06;30.08;;;12.35;;
30068;SDS011;16894;49.456;10.644;2022-10-31T02:01:36;35.80;;;13.35;;
30068;SDS011;16894;49.456;10.644;2022-10-31T02:06:47;39.03;;;13.77;;
30068;SDS011;16894;49.456;10.644;2022-10-31T02:09:16;32.10;;;12.73;;
30068;SDS011;16894;49.456;10.644;2022-10-31T02:11:45;28.85;;;11.80;;
30068;SDS011;16894;49.456;10.644;2022-10-31T02:14:11;28.77;;;13.23;;
30068;SDS011;16894;49.456;10.644;2022-10-31T02:16:38;24.98;;;12.05;;
30068;SDS011;16894;49.456;10.644;2022-10-31T02:19:04;34.37;;;13.17;;
30068;SDS011;16894;49.456;10.644;2022-10-31T02:24:31;27.98;;;12.68;;
30068;SDS011;16894;49.456;10.644;2022-10-31T02:30:06;20.15;;;12.27;;
30068;SDS011;16894;49.456;10.644;2022-10-31T02:40:57;22.00;;;12.45;;
30068;SDS011;16894;49.456;10.644;2022-10-31T02:43:36;23.38;;;12.95;;
30068;SDS011;16894;49.456;10.644;2022-10-31T02:48:48;20.50;;;12.30;;
30068;SDS011;16894;49.456;10.644;2022-10-31T02:51:19;41.17;;;12.43;;
30068;SDS011;16894;49.456;10.644;2022-10-31T02:53:45;46.63;;;13.93;;
30068;SDS011;16894;49.456;10.644;2022-10-31T02:56:18;89.83;;;14.57;;
30068;SDS011;16894;49.456;10.644;2022-10-31T02:58:48;65.70;;;13.70;;
30068;SDS011;16894;49.456;10.644;2022-10-31T03:01:24;40.65;;;13.38;;
30068;SDS011;16894;49.456;10.644;2022-10-31T03:07:11;25.98;;;13.35;;
30068;SDS011;16894;49.456;10.644;2022-10-31T03:12:39;37.88;;;12.88;;
30068;SDS011;16894;49.456;10.644;2022-10-31T03:20:27;52.05;;;12.25;;
30068;SDS011;16894;49.456;10.644;2022-10-31T03:22:58;26.88;;;12.30;;
30068;SDS011;16894;49.456;10.644;2022-10-31T03:25:27;16.00;;;11.90;;
30068;SDS011;16894;49.456;10.644;2022-10-31T03:27:54;21.85;;;11.90;;
30068;SDS011;16894;49.456;10.644;2022-10-31T03:30:21;25.80;;;11.63;;
30068;SDS011;16894;49.456;10.644;2022-10-31T03:32:54;46.17;;;13.30;;
30068;SDS011;16894;49.456;10.644;2022-10-31T03:35:22;30.38;;;11.90;;
30068;SDS011;16894;49.456;10.644;2022-10-31T03:37:50;15.93;;;11.93;;
30068;SDS011;16894;49.456;10.644;2022-10-31T03:40:19;20.83;;;12.52;;
30068;SDS011;16894;49.456;10.644;2022-10-31T03:42:49;24.95;;;13.57;;
30068;SDS011;16894;49.456;10.644;2022-10-31T03:45:20;21.80;;;12.85;;
30068;SDS011;16894;49.456;10.644;2022-10-31T03:47:50;23.23;;;13.82;;
30068;SDS011;16894;49.456;10.644;2022-10-31T03:50:17;33.53;;;15.38;;
30068;SDS011;16894;49.456;10.644;2022-10-31T03:52:46;31.00;;;14.38;;
30068;SDS011;16894;49.456;10.644;2022-10-31T03:55:17;24.48;;;14.60;;
30068;SDS011;16894;49.456;10.644;2022-10-31T03:58:06;21.60;;;13.50;;
30068;SDS011;16894;49.456;10.644;2022-10-31T04:00:33;24.15;;;14.48;;
30068;SDS011;16894;49.456;10.644;2022-10-31T04:03:07;33.35;;;14.73;;
30068;SDS011;16894;49.456;10.644;2022-10-31T04:05:36;25.50;;;14.50;;
30068;SDS011;16894;49.456;10.644;2022-10-31T04:08:04;30.25;;;13.48;;
30068;SDS011;16894;49.456;10.644;2022-10-31T04:10:34;28.38;;;15.18;;
30068;SDS011;16894;49.456;10.644;2022-10-31T04:13:10;33.83;;;17.05;;
30068;SDS011;16894;49.456;10.644;2022-10-31T04:15:39;32.88;;;15.10;;
30068;SDS011;16894;49.456;10.644;2022-10-31T04:18:08;32.03;;;14.38;;
30068;SDS011;16894;49.456;10.644;2022-10-31T04:20:38;33.55;;;14.85;;
30068;SDS011;16894;49.456;10.644;2022-10-31T04:23:08;21.60;;;12.55;;
30068;SDS011;16894;49.456;10.644;2022-10-31T04:25:43;27.23;;;12.57;;
30068;SDS011;16894;49.456;10.644;2022-10-31T04:28:09;25.27;;;12.17;;
30068;SDS011;16894;49.456;10.644;2022-10-31T04:30:34;21.20;;;13.00;;
30068;SDS011;16894;49.456;10.644;2022-10-31T04:33:00;21.40;;;11.83;;
30068;SDS011;16894;49.456;10.644;2022-10-31T04:35:26;24.20;;;13.87;;
30068;SDS011;16894;49.456;10.644;2022-10-31T04:37:51;19.17;;;12.37;;
30068;SDS011;16894;49.456;10.644;2022-10-31T04:40:17;19.00;;;10.97;;
30068;SDS011;16894;49.456;10.644;2022-10-31T04:42:42;25.70;;;14.17;;
30068;SDS011;16894;49.456;10.644;2022-10-31T04:45:08;24.23;;;13.60;;
30068;SDS011;16894;49.456;10.644;2022-10-31T04:47:34;27.10;;;14.60;;
30068;SDS011;16894;49.456;10.644;2022-10-31T04:50:00;30.00;;;13.90;;
30068;SDS011;16894;49.456;10.644;2022-10-31T04:52:26;20.90;;;13.85;;
30068;SDS011;16894;49.456;10.644;2022-10-31T04:54:52;25.07;;;14.33;;
30068;SDS011;16894;49.456;10.644;2022-10-31T04:57:18;21.57;;;14.27;;
30068;SDS011;16894;49.456;10.644;2022-10-31T04:59:43;24.47;;;12.43;;
30068;SDS011;16894;49.456;10.644;2022-10-31T05:02:09;25.42;;;13.15;;
30068;SDS011;16894;49.456;10.644;2022-10-31T05:04:35;16.87;;;11.73;;
30068;SDS011;16894;49.456;10.644;2022-10-31T05:07:01;18.40;;;12.80;;
30068;SDS011;16894;49.456;10.644;2022-10-31T05:09:26;20.73;;;12.03;;
30068;SDS011;16894;49.456;10.644;2022-10-31T05:11:52;18.80;;;12.53;;
30068;SDS011;16894;49.456;10.644;2022-10-31T05:14:18;18.67;;;12.80;;
30068;SDS011;16894;49.456;10.644;2022-10-31T05:16:43;22.13;;;13.20;;
30068;SDS011;16894;49.456;10.644;2022-10-31T05:19:09;17.23;;;12.10;;
30068;SDS011;16894;49.456;10.644;2022-10-31T05:21:34;20.13;;;13.00;;
30068;SDS011;16894;49.456;10.644;2022-10-31T05:24:00;16.93;;;11.00;;
30068;SDS011;16894;49.456;10.644;2022-10-31T05:26:26;44.83;;;15.13;;
30068;SDS011;16894;49.456;10.644;2022-10-31T05:28:51;36.63;;;13.00;;
30068;SDS011;16894;49.456;10.644;2022-10-31T05:31:17;27.43;;;12.33;;
30068;SDS011;16894;49.456;10.644;2022-10-31T05:33:43;25.33;;;13.47;;
30068;SDS011;16894;49.456;10.644;2022-10-31T05:36:08;23.10;;;14.27;;
30068;SDS011;16894;49.456;10.644;2022-10-31T05:38:34;22.17;;;13.77;;
30068;SDS011;16894;49.456;10.644;2022-10-31T05:41:00;19.57;;;12.67;;
30068;SDS011;16894;49.456;10.644;2022-10-31T05:43:26;27.33;;;13.20;;
30068;SDS011;16894;49.456;10.644;2022-10-31T05:45:53;25.85;;;14.27;;
30068;SDS011;16894;49.456;10.644;2022-10-31T05:48:19;27.30;;;15.48;;
30068;SDS011;16894;49.456;10.644;2022-10-31T05:50:46;22.63;;;14.70;;
30068;SDS011;16894;49.456;10.644;2022-10-31T05:53:13;21.85;;;13.13;;
30068;SDS011;16894;49.456;10.644;2022-10-31T05:55:38;22.87;;;11.97;;
30068;SDS011;16894;49.456;10.644;2022-10-31T05:58:05;22.33;;;11.40;;
30068;SDS011;16894;49.456;10.644;2022-10-31T06:00:32;19.08;;;13.13;;
30068;SDS011;16894;49.456;10.644;2022-10-31T06:03:05;16.73;;;10.90;;
30068;SDS011;16894;49.456;10.644;2022-10-31T06:05:32;17.85;;;11.38;;
30068;SDS011;16894;49.456;10.644;2022-10-31T06:07:58;21.48;;;13.57;;
30068;SDS011;16894;49.456;10.644;2022-10-31T06:10:24;24.33;;;15.40;;
30068;SDS011;16894;49.456;10.644;2022-10-31T06:12:50;35.67;;;15.43;;
30068;SDS011;16894;49.456;10.644;2022-10-31T06:15:16;44.73;;;28.10;;
30068;SDS011;16894;49.456;10.644;2022-10-31T06:17:42;26.75;;;13.75;;
30068;SDS011;16894;49.456;10.644;2022-10-31T06:20:08;27.30;;;12.67;;
30068;SDS011;16894;49.456;10.644;2022-10-31T06:22:34;31.80;;;12.88;;
30068;SDS011;16894;49.456;10.644;2022-10-31T06:25:00;17.63;;;11.97;;
30068;SDS011;16894;49.456;10.644;2022-10-31T06:27:25;19.30;;;12.27;;
30068;SDS011;16894;49.456;10.644;2022-10-31T06:29:51;16.73;;;11.27;;
30068;SDS011;16894;49.456;10.644;2022-10-31T06:32:17;23.83;;;12.73;;
30068;SDS011;16894;49.456;10.644;2022-10-31T06:34:43;24.90;;;13.43;;
30068;SDS011;16894;49.456;10.644;2022-10-31T06:37:13;26.23;;;12.50;;
30068;SDS011;16894;49.456;10.644;2022-10-31T06:39:39;32.10;;;14.25;;
30068;SDS011;16894;49.456;10.644;2022-10-31T06:42:05;21.20;;;15.25;;
30068;SDS011;16894;49.456;10.644;2022-10-31T06:44:31;33.58;;;12.85;;
30068;SDS011;16894;49.456;10.644;2022-10-31T06:46:57;22.23;;;13.90;;
30068;SDS011;16894;49.456;10.644;2022-10-31T06:49:22;24.43;;;14.60;;
30068;SDS011;16894;49.456;10.644;2022-10-31T06:51:48;22.20;;;15.07;;
30068;SDS011;16894;49.456;10.644;2022-10-31T06:54:15;36.55;;;17.27;;
30068;SDS011;16894;49.456;10.644;2022-10-31T06:56:40;34.83;;;16.70;;
30068;SDS011;16894;49.456;10.644;2022-10-31T06:59:06;39.45;;;15.55;;
30068;SDS011;16894;49.456;10.644;2022-10-31T07:01:32;44.20;;;18.20;;
30068;SDS011;16894;49.456;10.644;2022-10-31T07:03:58;40.40;;;16.83;;
30068;SDS011;16894;49.456;10.644;2022-10-31T07:06:23;39.37;;;16.97;;
30068;SDS011;16894;49.456;10.644;2022-10-31T07:08:49;27.07;;;15.10;;
30068;SDS011;16894;49.456;10.644;2022-10-31T07:11:15;41.28;;;19.98;;
30068;SDS011;16894;49.456;10.644;2022-10-31T07:13:41;38.15;;;23.80;;
30068;SDS011;16894;49.456;10.644;2022-10-31T07:16:07;43.33;;;23.93;;
30068;SDS011;16894;49.456;10.644;2022-10-31T07:18:33;33.85;;;14.45;;
30068;SDS011;16894;49.456;10.644;2022-10-31T07:20:59;20.02;;;11.85;;
30068;SDS011;16894;49.456;10.644;2022-10-31T07:23:24;18.67;;;12.60;;
30068;SDS011;16894;49.456;10.644;2022-10-31T07:25:56;22.33;;;12.57;;
30068;SDS011;16894;49.456;10.644;2022-10-31T07:28:23;20.58;;;11.90;;
30068;SDS011;16894;49.456;10.644;2022-10-31T07:30:53;23.40;;;11.32;;
30068;SDS011;16894;49.456;10.644;2022-10-31T07:33:20;27.63;;;12.30;;
30068;SDS011;16894;49.456;10.644;2022-10-31T07:35:46;29.47;;;14.03;;
30068;SDS011;16894;49.456;10.644;2022-10-31T07:38:12;28.17;;;11.70;;
30068;SDS011;16894;49.456;10.644;2022-10-31T07:40:39;19.17;;;10.02;;
30068;SDS011;16894;49.456;10.644;2022-10-31T07:43:06;19.05;;;10.27;;
30068;SDS011;16894;49.456;10.644;2022-10-31T07:45:32;16.90;;;11.55;;
30068;SDS011;16894;49.456;10.644;2022-10-31T07:47:58;20.63;;;12.43;;
30068;SDS011;16894;49.456;10.644;2022-10-31T07:50:28;25.88;;;13.07;;
30068;SDS011;16894;49.456;10.644;2022-10-31T07:53:06;22.98;;;13.65;;
30068;SDS011;16894;49.456;10.644;2022-10-31T07:55:33;19.80;;;11.65;;
30068;SDS011;16894;49.456;10.644;2022-10-31T07:58:06;27.73;;;13.63;;
30068;SDS011;16894;49.456;10.644;2022-10-31T08:00:35;25.92;;;13.07;;
30068;SDS011;16894;49.456;10.644;2022-10-31T08:05:29;24.55;;;15.73;;
30068;SDS011;16894;49.456;10.644;2022-10-31T08:07:56;20.90;;;12.38;;
30068;SDS011;16894;49.456;10.644;2022-10-31T08:12:54;18.17;;;12.98;;
30068;SDS011;16894;49.456;10.644;2022-10-31T08:15:21;20.17;;;11.07;;
30068;SDS011;16894;49.456;10.644;2022-10-31T08:17:47;19.83;;;12.33;;
30068;SDS011;16894;49.456;10.644;2022-10-31T08:20:13;18.17;;;11.73;;
30068;SDS011;16894;49.456;10.644;2022-10-31T08:22:38;18.00;;;11.87;;
30068;SDS011;16894;49.456;10.644;2022-10-31T08:25:04;25.27;;;11.00;;
30068;SDS011;16894;49.456;10.644;2022-10-31T08:27:30;18.80;;;11.40;;
30068;SDS011;16894;49.456;10.644;2022-10-31T08:29:56;20.63;;;13.88;;
30068;SDS011;16894;49.456;10.644;2022-10-31T08:32:21;19.27;;;10.67;;
30068;SDS011;16894;49.456;10.644;2022-10-31T08:34:47;20.23;;;11.35;;
30068;SDS011;16894;49.456;10.644;2022-10-31T08:37:13;15.43;;;11.90;;
30068;SDS011;16894;49.456;10.644;2022-10-31T08:39:44;14.02;;;10.45;;
30068;SDS011;16894;49.456;10.644;2022-10-31T08:44:36;12.95;;;9.85;;
30068;SDS011;16894;49.456;10.644;2022-10-31T08:47:02;18.27;;;9.82;;
30068;SDS011;16894;49.456;10.644;2022-10-31T08:49:28;11.10;;;9.53;;
30068;SDS011;16894;49.456;10.644;2022-10-31T08:51:54;20.80;;;11.73;;
30068;SDS011;16894;49.456;10.644;2022-10-31T08:54:19;13.23;;;11.60;;
30068;SDS011;16894;49.456;10.644;2022-10-31T08:56:45;12.75;;;11.40;;
30068;SDS011;16894;49.456;10.644;2022-10-31T08:59:11;13.57;;;12.37;;
30068;SDS011;16894;49.456;10.644;2022-10-31T09:01:37;16.13;;;11.13;;
30068;SDS011;16894;49.456;10.644;2022-10-31T09:04:02;14.57;;;11.07;;
30068;SDS011;16894;49.456;10.644;2022-10-31T09:06:28;16.73;;;13.10;;
30068;SDS011;16894;49.456;10.644;2022-10-31T09:08:54;14.30;;;13.00;;
30068;SDS011;16894;49.456;10.644;2022-10-31T09:11:19;14.27;;;13.03;;
30068;SDS011;16894;49.456;10.644;2022-10-31T09:13:45;21.87;;;14.17;;
30068;SDS011;16894;49.456;10.644;2022-10-31T09:16:10;15.00;;;13.60;;
30068;SDS011;16894;49.456;10.644;2022-10-31T09:18:36;13.93;;;12.43;;
30068;SDS011;16894;49.456;10.644;2022-10-31T09:21:02;10.27;;;8.63;;
30068;SDS011;16894;49.456;10.644;2022-10-31T09:23:27;11.03;;;9.60;;
30068;SDS011;16894;49.456;10.644;2022-10-31T09:25:53;12.80;;;7.90;;
30068;SDS011;16894;49.456;10.644;2022-10-31T09:28:21;14.00;;;7.80;;
30068;SDS011;16894;49.456;10.644;2022-10-31T09:30:49;15.48;;;8.50;;
30068;SDS011;16894;49.456;10.644;2022-10-31T09:33:16;14.18;;;8.68;;
30068;SDS011;16894;49.456;10.644;2022-10-31T09:35:42;15.45;;;13.48;;
30068;SDS011;16894;49.456;10.644;2022-10-31T09:38:11;21.08;;;19.15;;
30068;SDS011;16894;49.456;10.644;2022-10-31T09:40:44;18.55;;;16.80;;
30068;SDS011;16894;49.456;10.644;2022-10-31T09:43:19;18.52;;;16.63;;
30068;SDS011;16894;49.456;10.644;2022-10-31T09:51:00;20.95;;;18.80;;
30068;SDS011;16894;49.456;10.644;2022-10-31T09:56:11;33.22;;;30.40;;
30068;SDS011;16894;49.456;10.644;2022-10-31T09:58:42;36.28;;;33.45;;
30068;SDS011;16894;49.456;10.644;2022-10-31T10:01:15;30.98;;;27.90;;
30068;SDS011;16894;49.456;10.644;2022-10-31T10:06:56;28.55;;;26.15;;
30068;SDS011;16894;49.456;10.644;2022-10-31T10:09:24;33.47;;;29.85;;
30068;SDS011;16894;49.456;10.644;2022-10-31T10:23:05;28.30;;;26.13;;
30068;SDS011;16894;49.456;10.644;2022-10-31T10:25:39;33.22;;;30.42;;
30068;SDS011;16894;49.456;10.644;2022-10-31T10:30:49;33.63;;;29.67;;
30068;SDS011;16894;49.456;10.644;2022-10-31T10:35:52;29.50;;;26.55;;
30068;SDS011;16894;49.456;10.644;2022-10-31T10:40:53;25.45;;;22.92;;
30068;SDS011;16894;49.456;10.644;2022-10-31T10:45:49;28.98;;;25.95;;
30068;SDS011;16894;49.456;10.644;2022-10-31T10:51:27;35.75;;;25.35;;
30068;SDS011;16894;49.456;10.644;2022-10-31T10:54:02;27.67;;;22.30;;
30068;SDS011;16894;49.456;10.644;2022-10-31T10:59:55;25.95;;;23.70;;
30068;SDS011;16894;49.456;10.644;2022-10-31T11:02:24;27.60;;;24.45;;
30068;SDS011;16894;49.456;10.644;2022-10-31T11:04:56;26.65;;;23.98;;
30068;SDS011;16894;49.456;10.644;2022-10-31T11:07:24;24.73;;;22.60;;
30068;SDS011;16894;49.456;10.644;2022-10-31T11:09:50;27.65;;;24.95;;
30068;SDS011;16894;49.456;10.644;2022-10-31T11:12:20;28.10;;;25.37;;
30068;SDS011;16894;49.456;10.644;2022-10-31T11:15:01;30.92;;;25.85;;
30068;SDS011;16894;49.456;10.644;2022-10-31T11:17:33;25.27;;;23.25;;
30068;SDS011;16894;49.456;10.644;2022-10-31T11:21:50;28.50;;;23.85;;
30068;SDS011;16894;49.456;10.644;2022-10-31T11:24:17;37.88;;;22.75;;
30068;SDS011;16894;49.456;10.644;2022-10-31T11:26:46;28.90;;;22.90;;
30068;SDS011;16894;49.456;10.644;2022-10-31T11:29:23;25.63;;;23.15;;
30068;SDS011;16894;49.456;10.644;2022-10-31T11:31:51;26.58;;;23.75;;
30068;SDS011;16894;49.456;10.644;2022-10-31T11:34:27;25.02;;;21.70;;
30068;SDS011;16894;49.456;10.644;2022-10-31T11:37:09;24.25;;;21.75;;
30068;SDS011;16894;49.456;10.644;2022-10-31T11:39:41;24.02;;;21.52;;
30068;SDS011;16894;49.456;10.644;2022-10-31T11:42:14;27.52;;;20.17;;
30068;SDS011;16894;49.456;10.644;2022-10-31T11:44:41;26.70;;;18.42;;
30068;SDS011;16894;49.456;10.644;2022-10-31T11:47:15;26.02;;;19.83;;
30068;SDS011;16894;49.456;10.644;2022-10-31T11:49:43;22.75;;;17.40;;
30068;SDS011;16894;49.456;10.644;2022-10-31T11:52:24;23.70;;;15.52;;
30068;SDS011;16894;49.456;10.644;2022-10-31T11:54:57;22.25;;;15.23;;
30068;SDS011;16894;49.456;10.644;2022-10-31T12:00:17;27.73;;;19.55;;
30068;SDS011;16894;49.456;10.644;2022-10-31T12:02:48;41.38;;;19.58;;
30068;SDS011;16894;49.456;10.644;2022-10-31T12:05:23;22.45;;;14.75;;
30068;SDS011;16894;49.456;10.644;2022-10-31T12:08:16;21.80;;;12.38;;
30068;SDS011;16894;49.456;10.644;2022-10-31T12:17:20;22.67;;;11.75;;
30068;SDS011;16894;49.456;10.644;2022-10-31T12:20:26;22.65;;;12.98;;
30068;SDS011;16894;49.456;10.644;2022-10-31T12:29:51;28.50;;;15.07;;
30068;SDS011;16894;49.456;10.644;2022-10-31T12:42:34;15.25;;;9.88;;
30068;SDS011;16894;49.456;10.644;2022-10-31T12:57:07;24.67;;;12.50;;
30068;SDS011;16894;49.456;10.644;2022-10-31T12:59:57;20.23;;;12.80;;
30068;SDS011;16894;49.456;10.644;2022-10-31T13:05:44;30.05;;;14.60;;
30068;SDS011;16894;49.456;10.644;2022-10-31T13:11:26;26.20;;;16.13;;
30068;SDS011;16894;49.456;10.644;2022-10-31T13:17:11;21.73;;;15.02;;
30068;SDS011;16894;49.456;10.644;2022-10-31T13:23:11;22.85;;;13.68;;
30068;SDS011;16894;49.456;10.644;2022-10-31T13:26:03;23.13;;;13.00;;
30068;SDS011;16894;49.456;10.644;2022-10-31T13:29:02;25.58;;;14.27;;
30068;SDS011;16894;49.456;10.644;2022-10-31T13:32:07;25.92;;;12.90;;
30068;SDS011;16894;49.456;10.644;2022-10-31T13:34:39;23.67;;;14.75;;
30068;SDS011;16894;49.456;10.644;2022-10-31T13:40:01;27.58;;;13.40;;
30068;SDS011;16894;49.456;10.644;2022-10-31T13:46:01;20.15;;;12.70;;
30068;SDS011;16894;49.456;10.644;2022-10-31T13:50:57;20.93;;;12.23;;
30068;SDS011;16894;49.456;10.644;2022-10-31T13:53:42;23.23;;;12.18;;
30068;SDS011;16894;49.456;10.644;2022-10-31T13:58:34;27.63;;;12.10;;
30068;SDS011;16894;49.456;10.644;2022-10-31T14:04:22;20.25;;;13.32;;
30068;SDS011;16894;49.456;10.644;2022-10-31T14:07:09;23.65;;;12.85;;
30068;SDS011;16894;49.456;10.644;2022-10-31T14:09:38;27.75;;;12.68;;
30068;SDS011;16894;49.456;10.644;2022-10-31T14:14:57;26.55;;;12.77;;
30068;SDS011;16894;49.456;10.644;2022-10-31T14:17:31;25.30;;;12.63;;
30068;SDS011;16894;49.456;10.644;2022-10-31T14:22:34;19.57;;;11.93;;
30068;SDS011;16894;49.456;10.644;2022-10-31T14:25:24;20.00;;;13.35;;
30068;SDS011;16894;49.456;10.644;2022-10-31T14:27:51;28.30;;;15.32;;
30068;SDS011;16894;49.456;10.644;2022-10-31T14:30:21;38.42;;;19.45;;
30068;SDS011;16894;49.456;10.644;2022-10-31T14:32:53;44.35;;;24.17;;
30068;SDS011;16894;49.456;10.644;2022-10-31T14:35:26;34.33;;;22.55;;
30068;SDS011;16894;49.456;10.644;2022-10-31T14:44:14;30.02;;;19.27;;
30068;SDS011;16894;49.456;10.644;2022-10-31T14:51:46;30.90;;;24.05;;
30068;SDS011;16894;49.456;10.644;2022-10-31T14:54:22;35.55;;;23.25;;
30068;SDS011;16894;49.456;10.644;2022-10-31T14:57:06;32.90;;;21.60;;
30068;SDS011;16894;49.456;10.644;2022-10-31T14:59:56;25.95;;;18.48;;
30068;SDS011;16894;49.456;10.644;2022-10-31T15:02:28;27.00;;;18.63;;
30068;SDS011;16894;49.456;10.644;2022-10-31T15:05:01;22.88;;;16.77;;
30068;SDS011;16894;49.456;10.644;2022-10-31T15:07:48;29.90;;;17.42;;
30068;SDS011;16894;49.456;10.644;2022-10-31T15:12:48;28.57;;;17.83;;
30068;SDS011;16894;49.456;10.644;2022-10-31T15:15:14;36.88;;;18.67;;
30068;SDS011;16894;49.456;10.644;2022-10-31T15:17:54;35.78;;;21.55;;
30068;SDS011;16894;49.456;10.644;2022-10-31T15:20:24;51.30;;;29.60;;
30068;SDS011;16894;49.456;10.644;2022-10-31T15:22:53;53.33;;;30.17;;
30068;SDS011;16894;49.456;10.644;2022-10-31T15:25:22;48.03;;;31.30;;
30068;SDS011;16894;49.456;10.644;2022-10-31T15:27:49;27.33;;;20.85;;
30068;SDS011;16894;49.456;10.644;2022-10-31T15:30:17;30.20;;;23.88;;
30068;SDS011;16894;49.456;10.644;2022-10-31T15:32:45;31.40;;;24.65;;
30068;SDS011;16894;49.456;10.644;2022-10-31T15:35:14;33.25;;;22.35;;
30068;SDS011;16894;49.456;10.644;2022-10-31T15:37:54;31.33;;;18.17;;
30068;SDS011;16894;49.456;10.644;2022-10-31T15:40:24;24.25;;;17.92;;
30068;SDS011;16894;49.456;10.644;2022-10-31T15:42:52;28.85;;;18.65;;
30068;SDS011;16894;49.456;10.644;2022-10-31T15:45:22;41.00;;;20.48;;
30068;SDS011;16894;49.456;10.644;2022-10-31T15:47:54;22.23;;;19.83;;
30068;SDS011;16894;49.456;10.644;2022-10-31T15:50:32;32.05;;;21.75;;
30068;SDS011;16894;49.456;10.644;2022-10-31T15:53:11;37.35;;;21.63;;
30068;SDS011;16894;49.456;10.644;2022-10-31T15:55:48;34.25;;;23.77;;
30068;SDS011;16894;49.456;10.644;2022-10-31T15:58:19;37.15;;;25.15;;
30068;SDS011;16894;49.456;10.644;2022-10-31T16:03:23;37.78;;;25.38;;
30068;SDS011;16894;49.456;10.644;2022-10-31T16:05:55;32.17;;;26.30;;
30068;SDS011;16894;49.456;10.644;2022-10-31T16:11:39;44.45;;;27.77;;
30068;SDS011;16894;49.456;10.644;2022-10-31T16:16:18;299.80;;;100.00;;
30068;SDS011;16894;49.456;10.644;2022-10-31T16:18:48;219.50;;;77.90;;
30068;SDS011;16894;49.456;10.644;2022-10-31T16:21:22;90.03;;;36.17;;
30068;SDS011;16894;49.456;10.644;2022-10-31T16:23:51;46.40;;;25.48;;
30068;SDS011;16894;49.456;10.644;2022-10-31T16:26:21;37.40;;;22.77;;
30068;SDS011;16894;49.456;10.644;2022-10-31T16:28:52;51.75;;;27.35;;
30068;SDS011;16894;49.456;10.644;2022-10-31T16:31:25;73.25;;;27.75;;
30068;SDS011;16894;49.456;10.644;2022-10-31T16:34:43;64.28;;;29.88;;
30068;SDS011;16894;49.456;10.644;2022-10-31T16:36:49;58.80;;;28.55;;
30068;SDS011;16894;49.456;10.644;2022-10-31T16:39:16;42.78;;;25.30;;
30068;SDS011;16894;49.456;10.644;2022-10-31T16:41:43;37.30;;;24.25;;
30068;SDS011;16894;49.456;10.644;2022-10-31T16:44:18;45.25;;;27.20;;
30068;SDS011;16894;49.456;10.644;2022-10-31T16:47:06;47.47;;;26.77;;
30068;SDS011;16894;49.456;10.644;2022-10-31T16:49:34;41.47;;;23.60;;
30068;SDS011;16894;49.456;10.644;2022-10-31T16:52:00;40.63;;;26.60;;
30068;SDS011;16894;49.456;10.644;2022-10-31T16:54:26;47.97;;;26.57;;
30068;SDS011;16894;49.456;10.644;2022-10-31T16:56:54;41.53;;;28.42;;
30068;SDS011;16894;49.456;10.644;2022-10-31T16:59:19;53.88;;;30.67;;
30068;SDS011;16894;49.456;10.644;2022-10-31T17:01:46;46.90;;;28.90;;
30068;SDS011;16894;49.456;10.644;2022-10-31T17:04:13;69.35;;;40.63;;
30068;SDS011;16894;49.456;10.644;2022-10-31T17:06:39;66.30;;;42.35;;
30068;SDS011;16894;49.456;10.644;2022-10-31T17:11:31;50.30;;;32.85;;
30068;SDS011;16894;49.456;10.644;2022-10-31T17:13:58;40.45;;;31.63;;
30068;SDS011;16894;49.456;10.644;2022-10-31T17:16:23;48.37;;;34.20;;
30068;SDS011;16894;49.456;10.644;2022-10-31T17:18:49;49.63;;;36.10;;